createdAt,value
2022-08-02T00:00:12.377Z,99664.53
2022-08-02T00:02:39.065Z,99662.81
2022-08-02T00:05:06.457Z,99666.59
2022-08-02T00:07:36.499Z,99663.72
2022-08-02T00:10:06.948Z,99658.13
2022-08-02T00:12:33.700Z,99663.16
2022-08-02T00:15:00.411Z,99663.06
2022-08-02T00:17:26.946Z,99657.13
2022-08-02T00:19:53.494Z,99661.34
2022-08-02T00:22:20.046Z,99663.47
2022-08-02T00:24:46.652Z,99665.75
2022-08-02T00:27:13.391Z,99659.84
2022-08-02T00:29:52.209Z,99674.19
2022-08-02T00:32:19.535Z,99675.56
2022-08-02T00:34:46.170Z,99675.13
2022-08-02T00:37:12.981Z,99675.13
2022-08-02T00:39:39.652Z,99679.00
2022-08-02T00:42:06.623Z,99681.25
2022-08-02T00:44:33.280Z,99674.16
2022-08-02T00:47:00.280Z,99672.09
2022-08-02T00:49:27.324Z,99676.00
2022-08-02T00:51:53.966Z,99677.47
2022-08-02T00:54:21.031Z,99672.00
2022-08-02T00:56:50.004Z,99676.22
2022-08-02T00:59:18.586Z,99671.06
2022-08-02T01:01:56.176Z,99678.94
2022-08-02T01:04:30.749Z,99668.31
2022-08-02T01:07:01.030Z,99670.28
2022-08-02T01:09:27.921Z,99664.81
2022-08-02T01:11:54.496Z,99667.06
2022-08-02T01:14:24.426Z,99678.31
2022-08-02T01:17:11.265Z,99671.47
2022-08-02T01:19:52.786Z,99671.47
2022-08-02T01:23:00.740Z,99667.00
2022-08-02T01:25:36.838Z,99668.03
2022-08-02T01:28:54.576Z,99665.50
2022-08-02T01:31:29.864Z,99673.84
2022-08-02T01:34:04.673Z,99667.91
2022-08-02T01:36:55.143Z,99665.38
2022-08-02T01:39:32.557Z,99669.25
2022-08-02T01:42:01.157Z,99669.25
2022-08-02T01:44:31.938Z,99676.19
2022-08-02T01:47:02.159Z,99680.06
2022-08-02T01:49:31.173Z,99667.53
2022-08-02T01:52:18.808Z,99673.31
2022-08-02T01:54:47.367Z,99666.25
2022-08-02T01:57:16.257Z,99667.38
2022-08-02T01:59:45.664Z,99674.44
2022-08-02T02:02:15.457Z,99675.94
2022-08-02T02:04:43.959Z,99675.13
2022-08-02T02:07:13.011Z,99677.84
2022-08-02T02:09:47.674Z,99676.72
2022-08-02T02:12:18.519Z,99681.41
2022-08-02T02:14:51.387Z,99677.84
2022-08-02T02:18:11.266Z,99669.66
2022-08-02T02:20:09.065Z,99666.47
2022-08-02T02:22:35.667Z,99659.41
2022-08-02T02:25:04.271Z,99646.53
2022-08-02T02:27:37.071Z,99652.47
2022-08-02T02:30:06.016Z,99639.13
2022-08-02T02:32:33.954Z,99637.19
2022-08-02T02:35:04.103Z,99636.38
2022-08-02T02:37:32.240Z,99632.88
2022-08-02T02:39:59.311Z,99635.47
2022-08-02T02:42:32.348Z,99635.78
2022-08-02T02:45:00.242Z,99642.06
2022-08-02T02:47:40.918Z,99652.53
2022-08-02T02:50:10.032Z,99647.41
2022-08-02T02:52:39.709Z,99640.22
2022-08-02T02:55:07.910Z,99655.00
2022-08-02T02:57:36.650Z,99655.34
2022-08-02T03:00:14.540Z,99651.81
2022-08-02T03:02:43.280Z,99650.22
2022-08-02T03:05:11.961Z,99649.75
2022-08-02T03:07:40.435Z,99643.81
2022-08-02T03:10:08.020Z,99647.69
2022-08-02T03:12:36.270Z,99649.28
2022-08-02T03:15:06.922Z,99657.47
2022-08-02T03:17:45.207Z,99655.09
2022-08-02T03:20:18.518Z,99651.56
2022-08-02T03:22:46.832Z,99650.78
2022-08-02T03:25:14.785Z,99652.22
2022-08-02T03:27:41.415Z,99654.50
2022-08-02T03:30:10.373Z,99653.56
2022-08-02T03:32:38.400Z,99651.03
2022-08-02T03:35:07.870Z,99644.63
2022-08-02T03:37:36.900Z,99652.34
2022-08-02T03:40:07.134Z,99647.56
2022-08-02T03:42:33.763Z,99645.97
2022-08-02T03:45:07.729Z,99648.25
2022-08-02T03:47:36.896Z,99645.03
2022-08-02T03:50:03.754Z,99648.88
2022-08-02T03:52:32.761Z,99648.72
2022-08-02T03:54:59.527Z,99645.22
2022-08-02T03:57:26.553Z,99644.72
2022-08-02T03:59:53.087Z,99643.78
2022-08-02T04:02:19.767Z,99643.31
2022-08-02T04:04:46.336Z,99648.78
2022-08-02T04:07:12.909Z,99642.19
2022-08-02T04:09:39.538Z,99643.00
2022-08-02T04:12:06.275Z,99648.59
2022-08-02T04:14:36.444Z,99646.34
2022-08-02T04:17:07.820Z,99642.47
2022-08-02T04:19:39.559Z,99650.69
2022-08-02T04:22:11.137Z,99654.66
2022-08-02T04:24:47.462Z,99658.19
2022-08-02T04:27:49.123Z,99653.69
2022-08-02T04:30:06.691Z,99653.03
2022-08-02T04:32:33.512Z,99653.19
2022-08-02T04:38:08.311Z,99653.44
2022-08-02T04:40:34.863Z,99660.97
2022-08-02T04:43:01.427Z,99655.16
2022-08-02T04:45:29.744Z,99659.97
2022-08-02T04:48:04.447Z,99654.59
2022-08-02T04:50:32.152Z,99657.94
2022-08-02T04:52:58.715Z,99656.94
2022-08-02T04:55:29.115Z,99660.97
2022-08-02T04:57:57.805Z,99670.09
2022-08-02T05:00:26.752Z,99666.06
2022-08-02T05:02:54.173Z,99674.56
2022-08-02T05:05:20.982Z,99661.22
2022-08-02T05:07:47.646Z,99664.28
2022-08-02T05:10:14.528Z,99673.19
2022-08-02T05:12:41.724Z,99664.47
2022-08-02T05:15:12.848Z,99673.69
2022-08-02T05:17:40.077Z,99666.25
2022-08-02T05:20:18.294Z,99657.38
2022-08-02T05:22:45.180Z,99675.78
2022-08-02T05:25:12.128Z,99666.00
2022-08-02T05:27:38.872Z,99670.22
2022-08-02T05:30:06.337Z,99673.06
2022-08-02T05:32:33.287Z,99671.31
2022-08-02T05:35:02.893Z,99673.69
2022-08-02T05:37:32.111Z,99672.88
2022-08-02T05:39:59.216Z,99664.47
2022-08-02T05:42:31.229Z,99663.16
2022-08-02T05:44:58.070Z,99669.69
2022-08-02T05:47:25.845Z,99666.34
2022-08-02T05:49:52.424Z,99669.41
2022-08-02T05:52:20.177Z,99657.91
2022-08-02T05:55:04.092Z,99665.59
2022-08-02T05:57:30.585Z,99675.19
2022-08-02T06:00:10.849Z,99679.59
2022-08-02T06:02:43.677Z,99686.03
2022-08-02T06:05:13.087Z,99680.69
2022-08-02T06:07:43.383Z,99684.19
2022-08-02T06:10:13.315Z,99674.22
2022-08-02T06:12:51.844Z,99680.41
2022-08-02T06:15:20.291Z,99677.91
2022-08-02T06:17:48.063Z,99673.53
2022-08-02T06:20:15.709Z,99670.25
2022-08-02T06:22:44.551Z,99676.78
2022-08-02T06:25:50.044Z,99672.63
2022-08-02T06:28:02.111Z,99669.66
2022-08-02T06:30:30.351Z,99661.13
2022-08-02T06:33:00.933Z,99658.03
2022-08-02T06:35:59.576Z,99653.03
2022-08-02T06:38:32.546Z,99650.75
2022-08-02T06:41:07.668Z,99662.63
2022-08-02T06:43:53.780Z,99676.47
2022-08-02T06:46:38.123Z,99668.84
2022-08-02T06:49:07.988Z,99664.34
2022-08-02T06:51:34.732Z,99674.69
2022-08-02T06:54:01.520Z,99662.63
2022-08-02T06:56:28.116Z,99664.63
2022-08-02T06:58:54.728Z,99682.28
2022-08-02T07:01:21.381Z,99673.13
2022-08-02T07:03:48.202Z,99673.34
2022-08-02T07:06:14.818Z,99668.88
2022-08-02T07:08:41.497Z,99673.69
2022-08-02T07:11:09.525Z,99667.59
2022-08-02T07:13:39.704Z,99664.66
2022-08-02T07:16:07.408Z,99661.53
2022-08-02T07:18:35.635Z,99661.69
2022-08-02T07:21:05.387Z,99663.38
2022-08-02T07:23:35.355Z,99662.00
2022-08-02T07:26:04.815Z,99659.03
2022-08-02T07:28:32.693Z,99643.41
2022-08-02T07:30:59.321Z,99654.03
2022-08-02T07:33:38.237Z,99655.69
2022-08-02T07:36:08.185Z,99649.00
2022-08-02T07:38:36.231Z,99651.06
2022-08-02T07:41:04.613Z,99661.34
2022-08-02T07:43:31.505Z,99653.88
2022-08-02T07:46:00.645Z,99663.22
2022-08-02T07:48:28.074Z,99662.09
2022-08-02T07:50:54.699Z,99657.06
2022-08-02T07:53:49.882Z,99651.97
2022-08-02T07:56:08.168Z,99655.59
2022-08-02T07:58:34.767Z,99657.25
2022-08-02T08:01:01.373Z,99655.72
2022-08-02T08:03:28.334Z,99654.28
2022-08-02T08:05:54.951Z,99658.81
2022-08-02T08:08:21.839Z,99656.16
2022-08-02T08:10:49.430Z,99651.56
2022-08-02T08:13:16.321Z,99657.66
2022-08-02T08:15:51.468Z,99651.78
2022-08-02T08:18:19.649Z,99659.44
2022-08-02T08:20:46.235Z,99659.94
2022-08-02T08:23:12.811Z,99648.91
2022-08-02T08:25:41.421Z,99648.88
2022-08-02T08:28:08.798Z,99650.50
2022-08-02T08:30:35.500Z,99652.09
2022-08-02T08:33:02.953Z,99651.38
2022-08-02T08:35:29.608Z,99643.94
2022-08-02T08:37:56.406Z,99644.75
2022-08-02T08:40:25.006Z,99651.16
2022-08-02T08:42:51.771Z,99644.53
2022-08-02T08:45:18.400Z,99640.22
2022-08-02T08:47:51.232Z,99639.84
2022-08-02T08:50:24.843Z,99627.19
2022-08-02T08:53:01.773Z,99630.81
2022-08-02T08:55:29.713Z,99635.50
2022-08-02T08:57:59.499Z,99621.25
2022-08-02T09:00:27.273Z,99625.59
2022-08-02T09:02:53.952Z,99628.38
2022-08-02T09:05:20.674Z,99628.44
2022-08-02T09:07:51.047Z,99625.28
2022-08-02T09:10:37.818Z,99616.19
2022-08-02T09:13:38.443Z,99617.03
2022-08-02T09:16:12.022Z,99624.19
2022-08-02T09:18:46.628Z,99617.44
2022-08-02T09:21:16.093Z,99626.56
2022-08-02T09:23:50.026Z,99613.91
2022-08-02T09:26:19.312Z,99613.13
2022-08-02T09:28:50.278Z,99615.09
2022-08-02T09:31:22.383Z,99619.03
2022-08-02T09:34:07.513Z,99604.34
2022-08-02T09:36:45.471Z,99619.03
2022-08-02T09:39:14.740Z,99606.72
2022-08-02T09:41:44.321Z,99618.19
2022-08-02T09:44:16.506Z,99619.34
2022-08-02T09:46:45.751Z,99622.41
2022-08-02T09:49:17.472Z,99613.63
2022-08-02T09:51:47.181Z,99609.59
2022-08-02T09:54:33.043Z,99612.81
2022-08-02T09:57:01.694Z,99614.34
2022-08-02T09:59:29.649Z,99617.47
2022-08-02T10:02:01.758Z,99611.59
2022-08-02T10:04:32.216Z,99615.25
2022-08-02T10:07:04.590Z,99612.16
2022-08-02T10:09:32.340Z,99596.00
2022-08-02T10:11:59.918Z,99611.13
2022-08-02T10:14:27.910Z,99606.78
2022-08-02T10:16:57.000Z,99600.84
2022-08-02T10:20:00.250Z,99603.59
2022-08-02T10:22:13.196Z,99598.00
2022-08-02T10:24:42.866Z,99592.38
2022-08-02T10:27:17.532Z,99591.47
2022-08-02T10:29:55.391Z,99592.16
2022-08-02T10:32:42.272Z,99577.69
2022-08-02T10:35:25.594Z,99576.72
2022-08-02T10:37:55.555Z,99570.09
2022-08-02T10:40:27.021Z,99572.53
2022-08-02T10:42:54.587Z,99567.19
2022-08-02T10:45:22.862Z,99562.28
2022-08-02T10:48:09.485Z,99564.53
2022-08-02T10:50:54.187Z,99562.09
2022-08-02T10:53:33.926Z,99567.66
2022-08-02T10:56:03.257Z,99569.44
2022-08-02T10:58:34.512Z,99568.75
2022-08-02T11:01:38.648Z,99562.81
2022-08-02T11:04:10.581Z,99554.75
2022-08-02T11:07:10.969Z,99556.69
2022-08-02T11:09:38.051Z,99564.41
2022-08-02T11:12:10.943Z,99561.66
2022-08-02T11:14:40.254Z,99562.06
2022-08-02T11:17:15.264Z,99554.13
2022-08-02T11:20:10.854Z,99557.75
2022-08-02T11:22:38.064Z,99561.81
2022-08-02T11:25:23.197Z,99554.69
2022-08-02T11:27:49.699Z,99543.88
2022-08-02T11:30:16.587Z,99546.47
2022-08-02T11:32:44.211Z,99539.97
2022-08-02T11:35:10.990Z,99533.38
2022-08-02T11:37:40.468Z,99542.00
2022-08-02T11:40:19.009Z,99533.13
2022-08-02T11:42:50.777Z,99540.09
2022-08-02T11:45:21.126Z,99527.34
2022-08-02T11:47:51.679Z,99529.91
2022-08-02T11:50:29.676Z,99521.38
2022-08-02T11:52:57.675Z,99524.28
2022-08-02T11:55:32.160Z,99519.38
2022-08-02T11:58:05.636Z,99516.31
2022-08-02T12:00:33.083Z,99526.03
2022-08-02T12:03:00.261Z,99526.09
2022-08-02T12:05:44.699Z,99518.22
2022-08-02T12:08:13.688Z,99519.91
2022-08-02T12:10:48.869Z,99520.63
2022-08-02T12:13:15.592Z,99511.44
2022-08-02T12:15:45.405Z,99500.81
2022-08-02T12:18:34.649Z,99502.00
2022-08-02T12:21:02.349Z,99504.31
2022-08-02T12:23:29.353Z,99503.91
2022-08-02T12:26:15.919Z,99501.25
2022-08-02T12:28:43.613Z,99507.97
2022-08-02T12:31:14.093Z,99507.56
2022-08-02T12:33:54.666Z,99504.00
2022-08-02T12:36:24.056Z,99506.19
2022-08-02T12:38:58.082Z,99495.69
2022-08-02T12:41:31.114Z,99506.97
2022-08-02T12:43:59.642Z,99495.59
2022-08-02T12:46:26.346Z,99494.22
2022-08-02T12:49:16.917Z,99490.44
2022-08-02T12:51:57.729Z,99492.75
2022-08-02T12:54:38.799Z,99488.06
2022-08-02T12:57:13.801Z,99487.41
2022-08-02T12:59:42.344Z,99480.16
2022-08-02T13:02:11.866Z,99482.84
2022-08-02T13:04:39.762Z,99481.56
2022-08-02T13:07:06.432Z,99472.63
2022-08-02T13:09:40.461Z,99468.41
2022-08-02T13:12:08.250Z,99477.34
2022-08-02T13:14:40.440Z,99467.59
2022-08-02T13:17:10.373Z,99463.78
2022-08-02T13:19:38.407Z,99460.94
2022-08-02T13:22:05.606Z,99456.25
2022-08-02T13:24:41.053Z,99461.97
2022-08-02T13:27:20.824Z,99459.56
2022-08-02T13:29:48.860Z,99449.84
2022-08-02T13:32:15.983Z,99452.84
2022-08-02T13:34:43.105Z,99443.22
2022-08-02T13:37:09.855Z,99451.19
2022-08-02T13:39:36.556Z,99442.00
2022-08-02T13:42:03.274Z,99438.50
2022-08-02T13:44:30.015Z,99434.41
2022-08-02T13:46:57.031Z,99436.56
2022-08-02T13:49:49.793Z,99432.50
2022-08-02T13:52:11.881Z,99430.66
2022-08-02T13:54:38.901Z,99426.09
2022-08-02T13:57:05.681Z,99423.38
2022-08-02T13:59:57.559Z,99423.94
2022-08-02T14:02:19.023Z,99423.19
2022-08-02T14:04:45.670Z,99424.69
2022-08-02T14:07:12.954Z,99423.56
2022-08-02T14:09:40.403Z,99426.03
2022-08-02T14:12:07.829Z,99426.00
2022-08-02T14:14:34.519Z,99417.38
2022-08-02T14:17:01.804Z,99414.38
2022-08-02T14:19:28.680Z,99409.34
2022-08-02T14:21:55.841Z,99406.56
2022-08-02T14:24:39.790Z,99408.28
2022-08-02T14:27:06.466Z,99403.97
2022-08-02T14:29:33.337Z,99401.97
2022-08-02T14:31:59.942Z,99397.38
2022-08-02T14:34:26.572Z,99400.44
2022-08-02T14:36:53.974Z,99400.28
2022-08-02T14:39:21.207Z,99401.22
2022-08-02T14:41:59.801Z,99397.00
2022-08-02T14:44:27.781Z,99399.28
2022-08-02T14:46:54.657Z,99410.13
2022-08-02T14:49:25.193Z,99400.41
2022-08-02T14:51:54.411Z,99408.59
2022-08-02T14:54:27.846Z,99400.91
2022-08-02T14:56:58.558Z,99397.16
2022-08-02T14:59:25.425Z,99410.78
2022-08-02T15:01:52.220Z,99396.81
2022-08-02T15:04:18.932Z,99403.75
2022-08-02T15:06:45.743Z,99398.16
2022-08-02T15:09:13.643Z,99393.69
2022-08-02T15:11:47.338Z,99389.09
2022-08-02T15:14:19.085Z,99394.22
2022-08-02T15:16:59.241Z,99389.22
2022-08-02T15:19:40.880Z,99387.63
2022-08-02T15:22:16.369Z,99376.41
2022-08-02T15:24:45.894Z,99381.84
2022-08-02T15:27:14.267Z,99382.03
2022-08-02T15:29:42.103Z,99376.16
2022-08-02T15:32:08.979Z,99384.75
2022-08-02T15:34:35.632Z,99379.00
2022-08-02T15:37:02.545Z,99379.00
2022-08-02T15:39:29.405Z,99377.91
2022-08-02T15:41:56.215Z,99371.03
2022-08-02T15:44:22.850Z,99373.22
2022-08-02T15:46:49.469Z,99371.81
2022-08-02T15:49:16.097Z,99366.41
2022-08-02T15:51:42.750Z,99371.47
2022-08-02T15:54:09.332Z,99376.34
2022-08-02T15:56:35.952Z,99366.53
2022-08-02T15:59:02.759Z,99377.50
2022-08-02T16:01:32.097Z,99366.66
2022-08-02T16:04:04.924Z,99372.63
2022-08-02T16:06:31.562Z,99370.69
2022-08-02T16:08:58.248Z,99364.50
2022-08-02T16:11:24.877Z,99359.59
2022-08-02T16:13:54.486Z,99362.03
2022-08-02T16:16:28.132Z,99357.34
2022-08-02T16:18:55.538Z,99362.53
2022-08-02T16:21:25.461Z,99360.56
2022-08-02T16:24:01.073Z,99355.13
2022-08-02T16:26:34.266Z,99356.94
2022-08-02T16:29:02.446Z,99350.47
2022-08-02T16:31:29.728Z,99348.09
2022-08-02T16:33:57.193Z,99347.97
2022-08-02T16:36:25.780Z,99354.13
2022-08-02T16:38:53.621Z,99354.94
2022-08-02T16:41:20.425Z,99350.56
2022-08-02T16:43:47.150Z,99351.19
2022-08-02T16:46:13.771Z,99348.72
2022-08-02T16:48:40.522Z,99349.75
2022-08-02T16:51:13.887Z,99342.19
2022-08-02T16:54:00.053Z,99341.75
2022-08-02T16:56:28.754Z,99348.09
2022-08-02T16:58:59.707Z,99342.66
2022-08-02T17:01:27.695Z,99341.13
2022-08-02T17:03:56.966Z,99356.91
2022-08-02T17:06:26.362Z,99344.44
2022-08-02T17:08:56.322Z,99346.25
2022-08-02T17:11:23.860Z,99339.56
2022-08-02T17:13:51.838Z,99344.78
2022-08-02T17:16:20.906Z,99334.38
2022-08-02T17:18:53.188Z,99335.94
2022-08-02T17:21:20.130Z,99331.63
2022-08-02T17:24:05.993Z,99337.94
2022-08-02T17:26:34.381Z,99335.16
2022-08-02T17:29:14.370Z,99344.19
2022-08-02T17:31:46.501Z,99335.47
2022-08-02T17:34:30.882Z,99341.00
2022-08-02T17:36:57.754Z,99340.38
2022-08-02T17:39:24.308Z,99341.78
2022-08-02T17:42:00.292Z,99347.56
2022-08-02T17:44:37.363Z,99352.16
2022-08-02T17:47:11.722Z,99355.47
2022-08-02T17:49:43.966Z,99342.75
2022-08-02T17:52:48.852Z,99343.06
2022-08-02T17:54:58.152Z,99339.38
2022-08-02T17:57:24.950Z,99337.94
2022-08-02T18:00:12.356Z,99343.78
2022-08-02T18:02:39.177Z,99351.22
2022-08-02T18:05:06.167Z,99349.56
2022-08-02T18:07:50.097Z,99346.63
2022-08-02T18:10:19.901Z,99344.44
2022-08-02T18:12:47.183Z,99336.97
2022-08-02T18:15:15.934Z,99341.13
2022-08-02T18:17:42.598Z,99338.94
2022-08-02T18:20:11.143Z,99341.91
2022-08-02T18:22:39.776Z,99346.03
2022-08-02T18:25:09.811Z,99341.16
2022-08-02T18:27:39.010Z,99344.06
2022-08-02T18:30:08.049Z,99342.22
2022-08-02T18:33:54.556Z,99338.81
2022-08-02T18:35:22.050Z,99338.13
2022-08-02T18:37:57.266Z,99344.28
2022-08-02T18:40:27.528Z,99342.84
2022-08-02T18:42:54.200Z,99341.78
2022-08-02T18:45:21.306Z,99335.94
2022-08-02T18:47:50.800Z,99338.00
2022-08-02T18:50:17.869Z,99343.28
2022-08-02T18:52:44.798Z,99346.56
2022-08-02T18:55:17.194Z,99342.72
2022-08-02T18:58:19.794Z,99345.22
2022-08-02T19:00:51.542Z,99337.03
2022-08-02T19:03:19.276Z,99342.63
2022-08-02T19:05:52.133Z,99349.47
2022-08-02T19:08:26.260Z,99347.16
2022-08-02T19:10:56.195Z,99339.66
2022-08-02T19:13:24.241Z,99337.78
2022-08-02T19:15:50.866Z,99343.78
2022-08-02T19:18:17.446Z,99345.41
2022-08-02T19:20:48.368Z,99348.25
2022-08-02T19:23:15.255Z,99341.97
2022-08-02T19:25:50.306Z,99349.56
2022-08-02T19:28:30.967Z,99349.25
2022-08-02T19:30:57.776Z,99348.47
2022-08-02T19:34:06.754Z,99360.78
2022-08-02T19:36:12.002Z,99360.78
2022-08-02T19:38:43.820Z,99367.56
2022-08-02T19:41:13.173Z,99364.41
2022-08-02T19:44:27.566Z,99362.88
2022-08-02T19:46:26.505Z,99363.69
2022-08-02T19:48:53.235Z,99360.53
2022-08-02T19:51:49.940Z,99366.50
2022-08-02T19:54:06.999Z,99364.91
2022-08-02T19:56:37.547Z,99364.53
2022-08-02T19:59:13.862Z,99364.16
2022-08-02T20:01:44.783Z,99370.09
2022-08-02T20:04:14.084Z,99364.56
2022-08-02T20:06:45.473Z,99364.56
2022-08-02T20:09:33.570Z,99363.75
2022-08-02T20:12:14.408Z,99369.28
2022-08-02T20:14:50.947Z,99370.84
2022-08-02T20:17:20.715Z,99368.44
2022-08-02T20:19:47.663Z,99370.81
2022-08-02T20:22:16.069Z,99375.56
2022-08-02T20:24:43.134Z,99386.19
2022-08-02T20:27:16.704Z,99384.19
2022-08-02T20:29:48.706Z,99376.28
2022-08-02T20:32:23.399Z,99366.78
2022-08-02T20:34:50.860Z,99372.28
2022-08-02T20:37:59.455Z,99376.59
2022-08-02T20:40:06.795Z,99383.66
2022-08-02T20:42:34.500Z,99377.72
2022-08-02T20:45:01.412Z,99383.19
2022-08-02T20:47:39.449Z,99381.59
2022-08-02T20:50:31.168Z,99379.94
2022-08-02T20:53:00.350Z,99379.47
2022-08-02T20:55:30.997Z,99385.38
2022-08-02T20:58:01.359Z,99380.56
2022-08-02T21:00:29.683Z,99382.06
2022-08-02T21:02:56.254Z,99377.31
2022-08-02T21:05:26.944Z,99382.84
2022-08-02T21:08:13.986Z,99386.34
2022-08-02T21:10:43.956Z,99384.75
2022-08-02T21:13:22.985Z,99383.53
2022-08-02T21:15:50.620Z,99379.56
2022-08-02T21:18:24.021Z,99385.03
2022-08-02T21:21:01.665Z,99384.22
2022-08-02T21:23:28.755Z,99388.94
2022-08-02T21:25:57.996Z,99383.00
2022-08-02T21:28:43.923Z,99384.50
2022-08-02T21:34:01.931Z,99380.94
2022-08-02T21:36:30.869Z,99374.19
2022-08-02T21:39:04.830Z,99371.03
2022-08-02T21:41:38.562Z,99367.41
2022-08-02T21:44:07.460Z,99381.56
2022-08-02T21:46:34.687Z,99376.78
2022-08-02T21:49:01.864Z,99379.13
2022-08-02T21:51:29.130Z,99382.66
2022-08-02T21:54:17.793Z,99379.06
2022-08-02T21:56:52.284Z,99384.53
2022-08-02T21:59:25.396Z,99384.94
2022-08-02T22:01:53.894Z,99389.63
2022-08-02T22:04:21.780Z,99384.06
2022-08-02T22:06:49.024Z,99389.53
2022-08-02T22:09:42.329Z,99392.22
2022-08-02T22:12:09.726Z,99397.25
2022-08-02T22:14:37.325Z,99394.41
2022-08-02T22:17:09.083Z,99397.50
2022-08-02T22:19:53.860Z,99400.56
2022-08-02T22:22:28.681Z,99400.47
2022-08-02T22:24:56.716Z,99402.78
2022-08-02T22:28:35.651Z,99405.13
2022-08-02T22:30:11.238Z,99408.19
2022-08-02T22:32:56.706Z,99411.31
2022-08-02T22:35:23.266Z,99404.16
2022-08-02T22:38:15.099Z,99415.94
2022-08-02T22:40:36.559Z,99405.63
2022-08-02T22:43:03.166Z,99410.28
2022-08-02T22:45:29.831Z,99408.69
2022-08-02T22:48:03.508Z,99406.31
2022-08-02T22:50:30.212Z,99410.22
2022-08-02T22:52:57.383Z,99412.97
2022-08-02T22:55:24.508Z,99409.44
2022-08-02T22:57:58.983Z,99411.03
2022-08-02T22:59:02.909Z,99386.47
2022-08-02T23:00:26.574Z,99414.97
2022-08-02T23:02:53.195Z,99403.13
2022-08-02T23:05:20.928Z,99405.47
2022-08-02T23:07:47.508Z,99403.84
2022-08-02T23:10:14.469Z,99408.13
2022-08-02T23:12:41.237Z,99393.88
2022-08-02T23:15:08.640Z,99406.06
2022-08-02T23:17:54.080Z,99398.56
2022-08-02T23:20:20.651Z,99396.13
2022-08-02T23:22:47.235Z,99407.44
2022-08-02T23:25:14.479Z,99405.41
2022-08-02T23:30:21.759Z,99407.22
2022-08-02T23:32:48.302Z,99413.47
2022-08-02T23:35:16.961Z,99417.31
2022-08-02T23:37:59.057Z,99415.22
2022-08-02T23:40:39.882Z,99414.69
2022-08-02T23:43:13.231Z,99416.19
2022-08-02T23:45:46.070Z,99408.22
2022-08-02T23:48:13.317Z,99417.94
2022-08-02T23:50:39.871Z,99422.91
2022-08-02T23:53:06.476Z,99414.94
2022-08-02T23:55:33.017Z,99416.38
2022-08-02T23:57:59.716Z,99419.41
